Time;durP1;ratioP1;P1;durP2;ratioP2;P2;SDS_P1;SDS_P2;PMS_P1;PMS_P2;Temp;Humidity;BMP_temperature;BMP_pressure;BME280_temperature;BME280_humidity;BME280_pressure;Samples;Min_cycle;Max_cycle;Signal;HPM_P1;HPM_P2
2021/06/10 00:01:53;;;;;;;20.10;18.07;;;;;;;20.58;80.39;99761.03;5137938;27;20511;-75
2021/06/10 00:04:19;;;;;;;20.07;18.07;;;;;;;20.54;80.88;99766.91;5137347;27;21021;-75
2021/06/10 00:06:46;;;;;;;17.50;15.90;;;;;;;20.50;80.83;99766.34;5137569;27;20964;-76
2021/06/10 00:09:12;;;;;;;17.70;16.20;;;;;;;20.28;81.43;99769.41;5137065;27;20479;-76
2021/06/10 00:11:38;;;;;;;17.70;16.00;;;;;;;20.03;82.46;99766.28;5137539;27;20845;-75
2021/06/10 00:14:04;;;;;;;18.23;16.53;;;;;;;19.94;83.13;99769.91;5135671;27;20438;-76
2021/06/10 00:16:30;;;;;;;18.00;16.20;;;;;;;19.92;83.31;99772.81;5137758;27;20428;-76
2021/06/10 00:18:57;;;;;;;18.03;16.33;;;;;;;19.94;83.03;99768.06;5141156;27;20852;-75
2021/06/10 00:21:24;;;;;;;17.47;15.97;;;;;;;19.78;83.68;99774.06;5139017;27;20920;-75
2021/06/10 00:23:50;;;;;;;17.25;15.65;;;;;;;19.75;84.19;99778.97;5137626;27;20477;-75
2021/06/10 00:26:16;;;;;;;18.42;16.80;;;;;;;19.61;84.90;99774.78;5127823;27;20203;-75
2021/06/10 00:28:42;;;;;;;18.50;16.90;;;;;;;19.71;84.81;99774.81;5120711;27;20202;-76
2021/06/10 00:31:08;;;;;;;18.02;16.42;;;;;;;19.62;85.76;99776.50;5137141;27;20458;-75
2021/06/10 00:33:35;;;;;;;20.40;18.23;;;;;;;19.72;85.18;99777.41;5136754;27;20186;-76
2021/06/10 00:36:02;;;;;;;20.30;18.40;;;;;;;19.87;84.13;99777.81;5128887;27;20313;-75
2021/06/10 00:38:28;;;;;;;20.20;18.20;;;;;;;19.79;84.58;99775.81;5115997;28;20207;-76
2021/06/10 00:40:57;;;;;;;19.67;17.63;;;;;;;19.67;85.62;99771.50;5116197;28;20464;-75
2021/06/10 00:43:23;;;;;;;19.80;18.00;;;;;;;19.59;85.62;99765.88;5116675;28;20221;-75
2021/06/10 00:45:49;;;;;;;19.45;17.75;;;;;;;19.55;85.85;99764.41;5117457;27;20503;-76
2021/06/10 00:48:15;;;;;;;18.40;16.70;;;;;;;19.54;85.61;99765.44;5136769;27;20183;-75
2021/06/10 00:50:45;;;;;;;18.77;17.07;;;;;;;19.50;86.04;99764.00;5137122;27;20444;-75
2021/06/10 00:53:21;;;;;;;19.88;17.83;;;;;;;19.44;86.34;99764.56;5136963;27;20758;-75
2021/06/10 00:55:48;;;;;;;21.57;18.97;;;;;;;19.45;86.69;99767.16;5134352;27;20269;-75
2021/06/10 00:58:14;;;;;;;20.60;18.60;;;;;;;19.44;86.82;99775.47;5116387;28;20422;-75
2021/06/10 01:00:40;;;;;;;20.57;18.57;;;;;;;19.28;87.69;99771.41;5115992;28;20248;-75
2021/06/10 01:03:06;;;;;;;21.77;19.77;;;;;;;19.20;88.57;99773.13;5115643;28;20457;-75
2021/06/10 01:05:32;;;;;;;19.95;18.15;;;;;;;19.25;88.45;99774.44;5115347;28;20240;-75
2021/06/10 01:08:08;;;;;;;21.65;19.45;;;;;;;19.11;89.23;99772.97;5115897;28;20615;-76
2021/06/10 01:10:45;;;;;;;20.02;18.02;;;;;;;19.11;89.51;99777.59;5116016;28;20631;-75
2021/06/10 01:13:19;;;;;;;19.45;17.70;;;;;;;18.96;90.54;99774.38;5116125;28;20224;-75
2021/06/10 01:15:49;;;;;;;19.77;17.77;;;;;;;19.06;89.35;99774.38;5115606;28;20269;-76
2021/06/10 01:18:17;;;;;;;20.35;18.45;;;;;;;19.00;89.95;99774.97;5115473;28;20601;-76
2021/06/10 01:20:43;;;;;;;21.10;19.20;;;;;;;18.84;90.90;99770.88;5115161;28;20193;-75
2021/06/10 01:23:20;;;;;;;19.95;18.05;;;;;;;19.04;89.83;99773.66;5133446;27;20205;-75
2021/06/10 01:26:02;;;;;;;18.90;17.20;;;;;;;19.04;89.49;99779.13;5136091;27;20237;-75
2021/06/10 01:28:34;;;;;;;21.80;19.70;;;;;;;18.86;90.30;99777.06;5135862;27;20224;-75
2021/06/10 01:31:03;;;;;;;20.55;18.13;;;;;;;18.88;90.86;99785.09;5116812;27;20195;-75
2021/06/10 01:33:33;;;;;;;19.88;17.88;;;;;;;18.85;90.91;99782.66;5115291;28;20205;-75
2021/06/10 01:36:02;;;;;;;20.85;18.92;;;;;;;18.80;91.25;99788.53;5114466;28;20200;-75
2021/06/10 01:38:30;;;;;;;21.30;19.02;;;;;;;19.11;89.55;99786.63;5114841;28;20196;-75
2021/06/10 01:40:57;;;;;;;20.42;18.45;;;;;;;19.05;88.90;99789.91;5117114;28;20536;-75
2021/06/10 01:43:25;;;;;;;19.15;17.35;;;;;;;18.93;89.20;99785.56;5117653;27;20198;-75
2021/06/10 01:45:56;;;;;;;19.52;17.63;;;;;;;18.98;88.75;99779.69;5117735;27;20238;-75
2021/06/10 01:48:24;;;;;;;20.27;17.85;;;;;;;18.83;89.73;99777.31;5114786;28;20273;-75
2021/06/10 01:50:54;;;;;;;20.10;18.20;;;;;;;18.68;91.24;99775.97;5116421;28;20206;-75
2021/06/10 01:53:22;;;;;;;21.65;19.55;;;;;;;18.60;91.61;99776.63;5115699;27;20696;-75
2021/06/10 01:55:50;;;;;;;21.50;19.50;;;;;;;18.50;92.75;99776.59;5115230;28;20192;-75
2021/06/10 01:58:18;;;;;;;21.50;19.38;;;;;;;18.50;93.11;99767.56;5115061;28;20234;-76
2021/06/10 02:00:46;;;;;;;23.45;19.23;;;;;;;18.57;92.73;99768.72;5117754;28;20274;-75
2021/06/10 02:03:13;;;;;;;20.60;18.67;;;;;;;18.56;92.84;99769.72;5116236;28;20620;-76
2021/06/10 02:05:41;;;;;;;21.02;19.08;;;;;;;18.44;93.47;99773.53;5114439;28;20742;-75
2021/06/10 02:08:08;;;;;;;20.60;18.58;;;;;;;18.48;93.50;99769.53;5115530;28;20282;-75
2021/06/10 02:10:35;;;;;;;21.38;19.05;;;;;;;18.64;92.06;99769.03;5115313;28;20187;-75
2021/06/10 02:13:02;;;;;;;20.73;18.25;;;;;;;18.60;91.78;99770.31;5116272;28;20675;-75
2021/06/10 02:15:30;;;;;;;21.00;18.92;;;;;;;18.48;92.07;99766.81;5114572;28;20206;-74
2021/06/10 02:17:56;;;;;;;20.63;18.63;;;;;;;18.40;92.68;99770.19;5115131;28;20190;-75
2021/06/10 02:20:24;;;;;;;20.35;18.30;;;;;;;18.43;92.52;99771.78;5113945;28;20243;-75
2021/06/10 02:22:53;;;;;;;21.30;19.40;;;;;;;18.28;93.70;99777.59;5114116;28;20225;-75
2021/06/10 02:25:19;;;;;;;20.00;18.20;;;;;;;18.35;93.30;99769.75;5114482;28;20329;-75
2021/06/10 02:27:45;;;;;;;21.00;19.00;;;;;;;18.53;92.00;99770.84;5134959;27;20296;-75
2021/06/10 02:30:15;;;;;;;22.13;19.75;;;;;;;18.22;93.82;99767.22;5135432;28;20216;-75
2021/06/10 02:32:42;;;;;;;22.17;20.10;;;;;;;17.97;95.76;99765.78;5135477;28;20537;-75
2021/06/10 02:35:11;;;;;;;21.75;19.55;;;;;;;18.07;96.28;99766.72;5135434;28;20229;-75
2021/06/10 02:37:43;;;;;;;21.25;19.15;;;;;;;18.10;95.49;99763.72;5134939;28;20296;-75
2021/06/10 02:40:13;;;;;;;20.23;18.33;;;;;;;18.04;95.69;99761.50;5120742;28;20195;-75
2021/06/10 02:42:39;;;;;;;21.92;19.83;;;;;;;18.23;95.03;99768.13;5114517;28;20203;-74
2021/06/10 02:45:07;;;;;;;23.00;20.80;;;;;;;17.97;95.46;99760.31;5114083;28;20187;-74
2021/06/10 02:47:34;;;;;;;23.67;21.27;;;;;;;17.89;96.69;99762.88;5115909;28;20739;-74
2021/06/10 02:50:03;;;;;;;22.90;20.52;;;;;;;17.83;96.60;99766.97;5117798;28;20198;-74
2021/06/10 02:52:33;;;;;;;23.08;20.58;;;;;;;17.73;98.19;99763.28;5120075;28;20296;-75
2021/06/10 02:55:01;;;;;;;21.55;19.45;;;;;;;17.82;97.20;99761.63;5118605;28;20192;-75
2021/06/10 02:57:28;;;;;;;21.20;19.05;;;;;;;17.92;96.27;99766.16;5118347;28;20207;-75
2021/06/10 02:59:54;;;;;;;20.50;18.50;;;;;;;17.91;96.14;99760.88;5118524;28;20649;-75
2021/06/10 03:02:21;;;;;;;21.67;19.58;;;;;;;18.13;94.53;99765.31;5118409;28;20339;-75
2021/06/10 03:04:48;;;;;;;22.98;20.60;;;;;;;18.29;92.97;99760.25;5117527;28;20318;-75
2021/06/10 03:07:16;;;;;;;21.10;19.10;;;;;;;18.23;93.03;99768.13;5118060;28;20209;-75
2021/06/10 03:09:44;;;;;;;20.30;18.30;;;;;;;18.36;92.25;99766.03;5129268;27;20286;-75
2021/06/10 03:12:13;;;;;;;21.00;19.05;;;;;;;18.36;91.91;99763.31;5138350;27;20273;-75
2021/06/10 03:14:42;;;;;;;22.90;20.15;;;;;;;17.96;94.19;99760.47;5138265;27;20234;-74
2021/06/10 03:17:10;;;;;;;23.40;21.30;;;;;;;17.77;96.49;99764.72;5139159;27;20193;-76
2021/06/10 03:19:36;;;;;;;22.23;20.13;;;;;;;17.80;96.81;99766.34;5141142;27;20651;-76
2021/06/10 03:22:04;;;;;;;23.63;21.35;;;;;;;17.72;97.32;99761.53;5138539;27;20213;-74
2021/06/10 03:24:31;;;;;;;22.65;20.35;;;;;;;17.70;96.88;99763.53;5138183;27;20343;-74
2021/06/10 03:26:58;;;;;;;22.90;20.67;;;;;;;17.64;97.60;99759.47;5120545;27;20247;-74
2021/06/10 03:29:26;;;;;;;22.92;20.58;;;;;;;17.79;96.32;99770.06;5117281;28;20182;-75
2021/06/10 03:31:53;;;;;;;21.83;19.65;;;;;;;17.61;97.01;99773.34;5117236;28;20187;-75
2021/06/10 03:34:20;;;;;;;23.20;20.90;;;;;;;17.62;97.19;99777.81;5117636;27;20244;-75
2021/06/10 03:36:46;;;;;;;22.90;20.70;;;;;;;17.74;96.41;99775.03;5117422;28;20181;-75
2021/06/10 03:39:16;;;;;;;24.92;20.90;;;;;;;17.65;96.77;99774.81;5118361;27;20534;-75
2021/06/10 03:41:43;;;;;;;22.10;19.88;;;;;;;17.70;96.38;99769.88;5117252;28;20292;-75
2021/06/10 03:44:10;;;;;;;22.88;20.48;;;;;;;17.72;95.89;99764.25;5117381;28;20638;-75
2021/06/10 03:46:40;;;;;;;24.35;20.88;;;;;;;17.77;96.01;99769.31;5116983;28;20295;-75
2021/06/10 03:49:10;;;;;;;22.08;19.92;;;;;;;17.66;95.65;99762.94;5116636;28;20275;-75
2021/06/10 03:51:36;;;;;;;22.25;20.05;;;;;;;17.58;96.49;99767.31;5126093;27;20694;-75
2021/06/10 03:54:05;;;;;;;22.92;20.63;;;;;;;17.58;96.65;99773.59;5137034;27;20205;-75
2021/06/10 03:56:31;;;;;;;21.70;19.55;;;;;;;17.46;97.32;99767.34;5137744;27;20275;-75
2021/06/10 03:58:57;;;;;;;23.40;20.90;;;;;;;17.57;97.01;99777.34;5136958;27;20210;-75
2021/06/10 04:01:23;;;;;;;22.05;20.10;;;;;;;17.61;96.76;99761.59;5137742;27;20206;-75
2021/06/10 04:03:51;;;;;;;21.40;19.30;;;;;;;17.64;96.04;99762.22;5136772;27;20235;-74
2021/06/10 04:06:19;;;;;;;24.63;22.25;;;;;;;17.49;97.26;99768.94;5137201;27;20204;-74
2021/06/10 04:08:45;;;;;;;23.75;21.40;;;;;;;17.36;97.57;99763.66;5137208;27;20233;-75
2021/06/10 04:11:11;;;;;;;23.42;21.02;;;;;;;17.35;98.09;99764.66;5135711;27;20186;-75
2021/06/10 04:13:37;;;;;;;22.85;20.65;;;;;;;17.58;96.98;99760.00;5137248;27;20207;-76
2021/06/10 04:16:04;;;;;;;23.40;21.05;;;;;;;17.69;95.68;99759.94;5137114;27;20675;-75
2021/06/10 04:18:30;;;;;;;22.77;20.50;;;;;;;17.71;95.15;99755.22;5137226;27;20224;-76
2021/06/10 04:20:57;;;;;;;23.13;20.67;;;;;;;17.60;95.63;99763.47;5136823;27;20629;-76
2021/06/10 04:23:23;;;;;;;23.15;20.83;;;;;;;17.59;96.09;99766.28;5137421;27;20217;-76
2021/06/10 04:25:49;;;;;;;22.65;20.50;;;;;;;17.65;95.98;99763.91;5132121;27;20216;-75
2021/06/10 04:28:16;;;;;;;25.00;22.33;;;;;;;17.90;95.00;99762.72;5115713;28;20186;-76
2021/06/10 04:30:42;;;;;;;21.45;19.33;;;;;;;17.99;92.72;99760.19;5116057;28;20189;-75
2021/06/10 04:33:08;;;;;;;23.83;21.35;;;;;;;18.04;92.22;99763.38;5115879;28;20245;-75
2021/06/10 04:35:34;;;;;;;23.67;21.10;;;;;;;17.91;92.12;99772.63;5116267;28;20201;-75
2021/06/10 04:38:02;;;;;;;23.48;21.27;;;;;;;17.90;92.91;99772.75;5115681;28;20187;-75
2021/06/10 04:40:28;;;;;;;25.25;21.67;;;;;;;18.05;91.79;99766.00;5115936;28;20192;-75
2021/06/10 04:42:54;;;;;;;21.60;19.55;;;;;;;18.07;91.79;99772.16;5115933;28;20234;-76
2021/06/10 04:45:21;;;;;;;24.05;21.65;;;;;;;18.20;90.63;99765.63;5115639;28;20186;-75
2021/06/10 04:47:47;;;;;;;22.30;20.27;;;;;;;18.17;90.72;99768.66;5115482;28;20292;-75
2021/06/10 04:50:13;;;;;;;22.25;19.95;;;;;;;18.36;89.68;99766.03;5115741;28;20203;-75
2021/06/10 04:52:39;;;;;;;23.45;20.58;;;;;;;18.15;90.59;99765.19;5115866;28;20193;-75
2021/06/10 04:55:10;;;;;;;23.70;21.20;;;;;;;18.36;89.85;99767.88;5115657;28;20671;-75
2021/06/10 04:57:39;;;;;;;23.73;21.30;;;;;;;18.33;89.68;99772.59;5115942;27;20628;-75
2021/06/10 05:00:06;;;;;;;24.17;21.70;;;;;;;18.26;89.83;99773.28;5115545;28;20534;-75
2021/06/10 05:02:32;;;;;;;24.95;22.52;;;;;;;18.34;89.72;99774.34;5115839;28;20276;-75
2021/06/10 05:04:58;;;;;;;24.40;22.00;;;;;;;18.53;88.38;99775.44;5115798;28;20234;-74
2021/06/10 05:07:24;;;;;;;23.10;21.00;;;;;;;18.64;87.82;99771.78;5118643;27;20214;-73
2021/06/10 05:09:51;;;;;;;23.48;21.10;;;;;;;18.91;86.15;99777.50;5121786;27;20688;-74
2021/06/10 05:12:18;;;;;;;23.23;20.93;;;;;;;18.94;85.67;99779.94;5135613;27;20230;-73
2021/06/10 05:14:44;;;;;;;21.92;19.90;;;;;;;18.88;85.26;99780.53;5135659;27;20514;-72
2021/06/10 05:17:11;;;;;;;23.20;20.65;;;;;;;18.81;86.07;99779.31;5134789;27;20198;-74
2021/06/10 05:19:37;;;;;;;23.63;21.15;;;;;;;19.01;84.86;99785.72;5134675;27;20206;-74
2021/06/10 05:22:04;;;;;;;22.58;20.27;;;;;;;18.88;85.70;99780.53;5135454;27;20199;-74
2021/06/10 05:24:30;;;;;;;23.45;21.05;;;;;;;19.12;84.31;99777.41;5135469;27;20232;-75
2021/06/10 05:26:56;;;;;;;22.05;20.05;;;;;;;19.26;82.87;99775.31;5135127;27;20221;-75
2021/06/10 05:29:24;;;;;;;23.40;20.65;;;;;;;19.23;81.86;99783.78;5135062;27;20273;-75
2021/06/10 05:31:51;;;;;;;21.45;19.25;;;;;;;19.38;81.00;99775.03;5135708;27;20241;-75
2021/06/10 05:34:17;;;;;;;25.23;20.23;;;;;;;19.65;79.81;99780.81;5136030;27;20186;-74
2021/06/10 05:36:43;;;;;;;21.57;19.47;;;;;;;19.80;78.74;99784.88;5135087;27;20920;-74
2021/06/10 05:39:09;;;;;;;26.80;24.10;;;;;;;19.81;78.10;99783.00;5134636;27;20431;-75
2021/06/10 05:41:38;;;;;;;24.75;22.25;;;;;;;20.04;77.61;99789.06;5133542;27;20453;-75
2021/06/10 05:44:05;;;;;;;23.87;21.57;;;;;;;20.18;76.60;99792.19;5134562;27;20223;-75
2021/06/10 05:46:32;;;;;;;22.50;20.37;;;;;;;20.25;76.52;99783.41;5134125;27;20468;-75
2021/06/10 05:48:58;;;;;;;23.03;20.90;;;;;;;20.23;76.04;99782.69;5134175;27;20489;-74
2021/06/10 05:51:24;;;;;;;24.53;21.90;;;;;;;20.27;76.17;99787.72;5134402;27;20583;-75
2021/06/10 05:53:52;;;;;;;23.90;21.50;;;;;;;20.38;75.49;99783.94;5134470;27;20425;-73
2021/06/10 05:56:18;;;;;;;25.98;23.38;;;;;;;20.35;75.47;99784.22;5134028;27;20446;-74
2021/06/10 05:58:44;;;;;;;25.40;22.90;;;;;;;20.12;76.02;99789.16;5134791;27;20293;-75
2021/06/10 06:01:10;;;;;;;26.50;23.87;;;;;;;20.12;76.03;99781.81;5134523;27;20449;-75
2021/06/10 06:03:39;;;;;;;27.50;24.53;;;;;;;20.50;73.90;99785.50;5134302;27;20534;-75
2021/06/10 06:06:05;;;;;;;32.40;29.27;;;;;;;20.61;72.75;99781.75;5134274;27;20462;-74
2021/06/10 06:08:32;;;;;;;25.00;22.50;;;;;;;20.77;72.21;99794.78;5134479;28;20483;-74
2021/06/10 06:10:58;;;;;;;28.87;26.13;;;;;;;20.88;71.87;99791.00;5134410;28;20424;-73
2021/06/10 06:13:32;;;;;;;30.37;27.17;;;;;;;21.05;71.16;99790.19;5133911;28;20436;-75
2021/06/10 06:16:05;;;;;;;26.90;24.10;;;;;;;20.96;70.86;99788.38;5134142;27;20456;-74
2021/06/10 06:18:32;;;;;;;26.80;24.10;;;;;;;21.31;69.57;99793.09;5128316;28;20427;-75
2021/06/10 06:20:59;;;;;;;27.70;24.90;;;;;;;21.48;68.37;99796.03;5135312;27;20856;-75
2021/06/10 06:23:26;;;;;;;27.03;24.40;;;;;;;21.50;68.30;99805.81;5138357;27;20466;-74
2021/06/10 06:25:52;;;;;;;27.00;24.20;;;;;;;21.70;67.93;99806.53;5138099;27;20436;-74
2021/06/10 06:28:22;;;;;;;26.43;23.83;;;;;;;21.73;67.65;99805.38;5138932;27;20495;-74
2021/06/10 06:30:48;;;;;;;24.80;22.20;;;;;;;22.06;66.69;99801.91;5139035;27;20424;-74
2021/06/10 06:33:15;;;;;;;26.33;23.90;;;;;;;22.24;66.52;99804.66;5138738;27;20420;-75
2021/06/10 06:35:43;;;;;;;24.67;22.17;;;;;;;22.37;65.60;99800.66;5138066;27;21011;-75
2021/06/10 06:38:11;;;;;;;25.50;23.07;;;;;;;22.57;64.64;99802.16;5138074;27;20432;-75
2021/06/10 06:40:38;;;;;;;26.83;24.20;;;;;;;22.61;64.35;99795.34;5138261;27;20536;-75
2021/06/10 06:43:05;;;;;;;25.17;22.77;;;;;;;22.53;64.89;99805.41;5137791;27;20510;-73
2021/06/10 06:45:31;;;;;;;24.27;21.87;;;;;;;22.56;64.75;99800.44;5137588;27;20925;-75
2021/06/10 06:47:58;;;;;;;25.83;23.50;;;;;;;22.43;64.98;99803.63;5137733;27;20547;-74
2021/06/10 06:50:24;;;;;;;24.73;22.53;;;;;;;22.67;64.47;99807.53;5137930;27;20744;-74
2021/06/10 06:52:50;;;;;;;26.97;24.20;;;;;;;22.87;63.77;99800.78;5138225;27;20909;-74
2021/06/10 06:55:17;;;;;;;26.43;23.73;;;;;;;23.06;63.29;99810.69;5137953;27;20509;-74
2021/06/10 06:57:44;;;;;;;26.23;23.67;;;;;;;22.97;62.89;99817.13;5138183;27;20503;-74
2021/06/10 07:00:11;;;;;;;26.73;24.33;;;;;;;22.92;63.53;99813.16;5137660;27;20448;-74
2021/06/10 07:02:37;;;;;;;27.63;24.30;;;;;;;23.01;63.34;99817.72;5137684;27;20447;-75
2021/06/10 07:05:04;;;;;;;26.97;24.17;;;;;;;23.10;62.88;99812.09;5137355;27;20898;-74
2021/06/10 07:07:31;;;;;;;26.97;24.50;;;;;;;23.20;61.86;99806.47;5138066;27;20463;-75
2021/06/10 07:09:58;;;;;;;28.13;25.00;;;;;;;23.30;61.75;99811.81;5137663;27;20523;-74
2021/06/10 07:12:25;;;;;;;24.83;22.20;;;;;;;23.56;61.16;99808.13;5137853;27;20501;-74
2021/06/10 07:14:51;;;;;;;28.40;25.50;;;;;;;23.61;60.70;99814.00;5137625;27;20514;-74
2021/06/10 07:17:18;;;;;;;26.47;24.07;;;;;;;24.00;59.70;99808.75;5138046;27;20517;-75
2021/06/10 07:19:44;;;;;;;27.00;24.40;;;;;;;23.99;59.32;99808.91;5137028;27;20527;-75
2021/06/10 07:22:10;;;;;;;29.03;24.53;;;;;;;23.81;59.39;99814.56;5137186;27;20435;-75
2021/06/10 07:24:37;;;;;;;26.83;24.27;;;;;;;23.98;58.97;99820.94;5136858;27;20518;-75
2021/06/10 07:27:03;;;;;;;26.27;23.57;;;;;;;23.62;59.68;99822.06;5137952;27;20891;-74
2021/06/10 07:29:31;;;;;;;27.60;24.80;;;;;;;23.49;60.16;99821.66;5137290;27;20463;-75
2021/06/10 07:31:57;;;;;;;27.97;25.20;;;;;;;23.72;59.58;99816.41;5137767;27;20502;-75
2021/06/10 07:34:23;;;;;;;26.47;24.07;;;;;;;23.99;58.97;99817.16;5136253;27;20423;-74
2021/06/10 07:36:49;;;;;;;29.37;26.27;;;;;;;24.10;57.49;99820.44;5136770;27;20856;-73
2021/06/10 07:39:15;;;;;;;27.67;24.97;;;;;;;24.34;56.56;99819.56;5137347;27;20455;-74
2021/06/10 07:41:43;;;;;;;28.43;25.60;;;;;;;24.71;55.06;99812.66;5136872;27;20870;-74
2021/06/10 07:44:09;;;;;;;28.07;25.17;;;;;;;25.11;53.93;99819.09;5135734;27;20456;-74
2021/06/10 07:46:37;;;;;;;29.70;26.60;;;;;;;25.28;53.46;99822.69;5136887;27;20464;-74
2021/06/10 07:49:03;;;;;;;28.10;25.47;;;;;;;25.47;53.18;99821.38;5137531;27;20539;-74
2021/06/10 07:51:30;;;;;;;29.00;25.87;;;;;;;25.63;52.98;99822.34;5137047;27;20503;-75
2021/06/10 07:53:56;;;;;;;27.73;25.07;;;;;;;25.52;52.51;99826.34;5136272;27;20489;-74
2021/06/10 07:56:22;;;;;;;27.17;24.47;;;;;;;25.63;52.40;99819.59;5136172;27;20440;-74
2021/06/10 07:58:48;;;;;;;26.33;23.73;;;;;;;25.88;51.70;99826.69;5136530;27;20515;-74
2021/06/10 08:01:14;;;;;;;28.43;25.83;;;;;;;25.96;51.45;99828.50;5136211;27;20738;-75
2021/06/10 08:03:42;;;;;;;28.40;25.70;;;;;;;26.11;49.32;99826.69;5136357;27;20566;-74
2021/06/10 08:06:08;;;;;;;28.80;25.50;;;;;;;26.20;49.11;99824.72;5136896;27;20599;-74
2021/06/10 08:08:35;;;;;;;26.77;24.03;;;;;;;26.18;49.28;99832.31;5135871;27;20523;-75
2021/06/10 08:11:06;;;;;;;26.20;23.80;;;;;;;26.17;49.50;99820.44;5135616;27;20475;-74
2021/06/10 08:13:32;;;;;;;27.80;25.03;;;;;;;26.35;49.16;99827.53;5136341;27;20428;-73
2021/06/10 08:15:58;;;;;;;25.70;23.30;;;;;;;26.05;49.13;99823.81;5135589;27;20439;-75
2021/06/10 08:18:26;;;;;;;26.13;23.63;;;;;;;25.38;51.22;99817.81;5135536;27;20447;-75
2021/06/10 08:20:55;;;;;;;25.63;23.13;;;;;;;25.27;51.64;99823.72;5135811;27;21219;-75
2021/06/10 08:23:21;;;;;;;25.63;23.13;;;;;;;25.69;50.60;99821.59;5136194;27;20448;-75
2021/06/10 08:25:47;;;;;;;27.70;24.70;;;;;;;26.00;49.85;99822.47;5136203;27;20521;-75
2021/06/10 08:28:14;;;;;;;24.87;22.63;;;;;;;26.37;48.95;99822.69;5135944;27;20470;-75
2021/06/10 08:30:41;;;;;;;25.53;22.60;;;;;;;26.45;49.02;99816.22;5135545;27;20440;-75
2021/06/10 08:33:07;;;;;;;24.43;22.33;;;;;;;26.64;48.87;99807.47;5135898;27;20444;-74
2021/06/10 08:35:34;;;;;;;26.00;23.60;;;;;;;26.88;48.12;99811.84;5135159;27;20870;-74
2021/06/10 08:38:03;;;;;;;23.67;21.50;;;;;;;27.11;47.52;99810.88;5134521;27;20918;-75
2021/06/10 08:40:30;;;;;;;24.60;22.40;;;;;;;27.05;47.44;99809.75;5135685;27;20436;-75
2021/06/10 08:42:57;;;;;;;23.17;21.17;;;;;;;27.15;47.12;99813.06;5135055;27;20440;-74
2021/06/10 08:45:27;;;;;;;25.27;22.53;;;;;;;26.85;47.96;99812.22;5134324;27;20442;-73
2021/06/10 08:47:54;;;;;;;23.53;21.53;;;;;;;27.28;47.29;99806.91;5135325;27;20512;-73
2021/06/10 08:50:23;;;;;;;23.83;21.43;;;;;;;27.43;46.47;99809.66;5135497;27;20425;-74
2021/06/10 08:52:49;;;;;;;23.10;20.90;;;;;;;27.46;46.25;99812.03;5135436;27;20436;-74
2021/06/10 08:55:17;;;;;;;23.40;21.30;;;;;;;27.46;46.20;99814.78;5135762;27;20420;-75
2021/06/10 08:57:43;;;;;;;25.60;23.20;;;;;;;27.80;45.37;99818.81;5135355;27;20520;-74
2021/06/10 09:00:10;;;;;;;25.30;22.73;;;;;;;27.90;44.79;99821.28;5135355;27;20455;-75
2021/06/10 09:02:37;;;;;;;22.93;20.70;;;;;;;28.04;44.70;99824.00;5136122;27;20420;-74
2021/06/10 09:05:05;;;;;;;24.00;21.63;;;;;;;28.12;43.93;99819.38;5135149;27;20965;-75
2021/06/10 09:07:35;;;;;;;24.23;22.03;;;;;;;28.43;43.03;99816.28;5135343;27;20492;-74
2021/06/10 09:10:03;;;;;;;24.20;21.80;;;;;;;28.14;43.42;99820.91;5134924;27;20450;-74
2021/06/10 09:12:37;;;;;;;22.53;20.40;;;;;;;26.91;45.18;99821.66;5134183;27;20933;-73
2021/06/10 09:15:09;;;;;;;21.20;19.30;;;;;;;27.11;45.36;99813.66;5134925;27;20431;-74
2021/06/10 09:17:38;;;;;;;21.43;19.37;;;;;;;27.14;44.72;99811.38;5135850;27;20436;-75
2021/06/10 09:20:36;;;;;;;22.43;20.23;;;;;;;27.05;44.57;99804.22;5135164;27;20547;-74
2021/06/10 09:23:11;;;;;;;20.90;19.00;;;;;;;27.26;43.09;99809.00;5134138;27;20921;-75
2021/06/10 09:25:38;;;;;;;20.80;18.77;;;;;;;27.80;41.97;99811.38;5135380;27;20484;-75
2021/06/10 09:28:07;;;;;;;20.07;18.20;;;;;;;27.90;41.87;99822.13;5134710;27;20830;-73
2021/06/10 09:30:37;;;;;;;17.90;15.90;;;;;;;28.42;39.82;99814.53;5135232;27;20497;-75
2021/06/10 09:33:08;;;;;;;17.17;15.77;;;;;;;28.81;39.34;99813.16;5134710;27;20557;-74
2021/06/10 09:35:36;;;;;;;16.80;15.30;;;;;;;29.25;38.62;99817.53;5134616;27;20448;-73
2021/06/10 09:38:05;;;;;;;15.07;13.77;;;;;;;29.64;37.14;99816.81;5135094;27;20512;-73
2021/06/10 09:40:31;;;;;;;17.77;16.17;;;;;;;29.75;37.12;99822.88;5134610;27;20516;-74
2021/06/10 09:42:58;;;;;;;16.77;15.37;;;;;;;29.37;38.05;99809.47;5134790;27;20453;-75
2021/06/10 09:45:28;;;;;;;16.97;15.60;;;;;;;29.04;38.46;99807.34;5134195;27;20511;-74
2021/06/10 09:47:59;;;;;;;17.03;15.33;;;;;;;29.06;39.07;99808.88;5134841;27;20480;-75
2021/06/10 09:50:29;;;;;;;16.90;15.50;;;;;;;29.46;37.98;99813.75;5135085;27;20524;-75
2021/06/10 09:52:56;;;;;;;17.40;15.80;;;;;;;29.01;38.71;99824.38;5134548;27;20795;-74
2021/06/10 09:55:42;;;;;;;18.77;16.97;;;;;;;28.60;39.96;99811.31;5134334;27;20409;-75
2021/06/10 09:58:26;;;;;;;18.03;16.53;;;;;;;28.15;40.46;99813.44;5133949;27;20519;-75
2021/06/10 10:00:58;;;;;;;18.10;16.20;;;;;;;27.89;41.51;99819.59;5134212;27;20820;-75
2021/06/10 10:03:42;;;;;;;17.30;15.80;;;;;;;27.77;42.89;99811.75;5134589;27;20469;-74
2021/06/10 10:06:17;;;;;;;17.67;16.10;;;;;;;27.50;42.96;99802.31;5136649;27;20429;-76
2021/06/10 10:08:46;;;;;;;17.57;15.77;;;;;;;27.77;42.52;99808.13;5134708;27;20431;-75
2021/06/10 10:11:14;;;;;;;17.70;16.00;;;;;;;27.36;42.76;99806.81;5133963;28;20428;-75
2021/06/10 10:13:40;;;;;;;20.00;15.57;;;;;;;26.95;43.59;99798.13;5134566;28;20444;-75
2021/06/10 10:16:10;;;;;;;16.93;15.47;;;;;;;26.62;44.09;99798.50;5133953;28;20444;-75
2021/06/10 10:18:37;;;;;;;18.90;17.20;;;;;;;26.72;43.99;99810.13;5134101;27;20432;-75
2021/06/10 10:21:04;;;;;;;19.20;17.57;;;;;;;26.27;44.80;99808.28;5134124;27;20460;-74
2021/06/10 10:23:31;;;;;;;18.10;16.50;;;;;;;26.50;44.52;99802.72;5134567;28;20436;-75
2021/06/10 10:25:59;;;;;;;18.53;16.93;;;;;;;26.60;44.45;99804.19;5135217;28;20476;-76
2021/06/10 10:28:27;;;;;;;19.87;18.23;;;;;;;26.39;44.53;99804.91;5135824;27;20511;-76
2021/06/10 10:30:53;;;;;;;19.20;17.30;;;;;;;26.23;44.71;99807.81;5135664;27;20463;-74
2021/06/10 10:33:23;;;;;;;18.93;17.20;;;;;;;26.57;43.94;99800.94;5135249;27;20803;-76
2021/06/10 10:35:51;;;;;;;17.40;15.90;;;;;;;26.45;42.92;99802.44;5135462;27;20436;-76
2021/06/10 10:38:21;;;;;;;14.47;13.27;;;;;;;26.87;41.79;99798.25;5135214;27;20425;-76
2021/06/10 10:40:59;;;;;;;16.63;15.13;;;;;;;27.07;41.61;99792.97;5135550;27;20440;-75
2021/06/10 10:43:27;;;;;;;15.03;13.73;;;;;;;27.14;41.28;99780.97;5134242;27;20464;-75
2021/06/10 10:46:11;;;;;;;14.87;13.67;;;;;;;27.24;40.67;99786.22;5134096;27;20420;-74
2021/06/10 10:48:43;;;;;;;14.77;13.37;;;;;;;27.89;39.10;99781.69;5134588;27;21036;-76
2021/06/10 10:51:26;;;;;;;15.40;14.10;;;;;;;28.18;38.01;99780.69;5134331;28;20427;-76
2021/06/10 10:53:59;;;;;;;14.00;12.70;;;;;;;27.90;37.56;99782.53;5134556;28;20427;-76
2021/06/10 10:56:35;;;;;;;14.57;13.37;;;;;;;27.70;39.03;99777.66;5135728;27;20488;-75
2021/06/10 10:59:16;;;;;;;14.20;13.00;;;;;;;27.76;38.59;99778.75;5134234;28;20426;-75
2021/06/10 11:02:00;;;;;;;11.70;10.50;;;;;;;28.33;35.40;99772.28;5132634;27;20841;-76
2021/06/10 11:04:51;;;;;;;11.80;10.83;;;;;;;28.47;35.68;99768.63;5134746;28;21050;-74
2021/06/10 11:07:57;;;;;;;12.70;11.73;;;;;;;28.61;36.55;99763.19;5133714;27;20553;-72
2021/06/10 11:11:09;;;;;;;12.70;11.47;;;;;;;28.24;36.57;99763.28;5136039;27;20443;-76
2021/06/10 11:13:51;;;;;;;12.17;11.17;;;;;;;28.11;35.51;99751.22;5135311;27;20462;-75
2021/06/10 11:16:17;;;;;;;11.60;10.47;;;;;;;28.03;36.21;99755.00;5133452;27;20452;-76
2021/06/10 11:18:52;;;;;;;11.70;10.80;;;;;;;28.35;35.36;99750.78;5135472;27;20476;-75
2021/06/10 11:21:52;;;;;;;11.30;10.50;;;;;;;28.37;35.51;99748.69;5135735;27;20431;-74
2021/06/10 11:24:21;;;;;;;12.20;11.10;;;;;;;28.22;35.91;99750.69;5072303;28;20484;-75